createdAt,value
2018-05-29T00:00:07.870Z,0
2018-05-29T00:01:29.668Z,0
2018-05-29T00:02:51.731Z,0
2018-05-29T00:04:13.782Z,0
2018-05-29T00:05:35.831Z,0
2018-05-29T00:06:57.877Z,0
2018-05-29T00:08:19.911Z,0
2018-05-29T00:09:41.699Z,0
2018-05-29T00:11:03.740Z,0
2018-05-29T00:12:25.781Z,0
2018-05-29T00:13:47.807Z,0
2018-05-29T00:15:09.599Z,0
2018-05-29T00:16:31.632Z,0
2018-05-29T00:17:53.678Z,0
2018-05-29T00:19:15.470Z,0
2018-05-29T00:20:37.517Z,0
2018-05-29T00:21:59.284Z,0
2018-05-29T00:23:21.318Z,0
2018-05-29T00:24:43.377Z,0
2018-05-29T00:26:05.411Z,0
2018-05-29T00:27:26.985Z,0
2018-05-29T00:28:49.023Z,0
2018-05-29T00:30:11.065Z,0
2018-05-29T00:31:33.112Z,0
2018-05-29T00:32:54.903Z,0
2018-05-29T00:34:16.686Z,0
2018-05-29T00:35:38.742Z,0
2018-05-29T00:37:00.805Z,0
2018-05-29T00:38:22.892Z,0
2018-05-29T00:39:44.660Z,0
2018-05-29T00:41:06.450Z,0
2018-05-29T00:42:27.965Z,0
2018-05-29T00:43:50.001Z,0
2018-05-29T00:45:12.056Z,0
2018-05-29T00:46:33.835Z,0
2018-05-29T00:47:55.607Z,0
2018-05-29T00:49:17.369Z,0
2018-05-29T00:50:39.416Z,0
2018-05-29T00:52:00.945Z,0
2018-05-29T00:53:22.719Z,0
2018-05-29T00:54:44.757Z,0
2018-05-29T00:56:06.814Z,0
2018-05-29T00:57:28.868Z,0
2018-05-29T00:58:50.651Z,0
2018-05-29T01:00:12.183Z,0
2018-05-29T01:01:34.287Z,0
2018-05-29T01:02:56.365Z,0
2018-05-29T01:04:18.451Z,0
2018-05-29T01:05:40.506Z,0
2018-05-29T01:07:02.309Z,0
2018-05-29T01:08:24.370Z,0
2018-05-29T01:09:46.141Z,0
2018-05-29T01:11:07.673Z,0
2018-05-29T01:12:29.723Z,0
2018-05-29T01:13:51.567Z,0
2018-05-29T01:15:13.354Z,0
2018-05-29T01:16:35.140Z,0
2018-05-29T01:17:57.235Z,0
2018-05-29T01:19:19.293Z,0
2018-05-29T01:20:41.345Z,0
2018-05-29T01:22:03.392Z,0
2018-05-29T01:23:25.429Z,0
2018-05-29T01:24:47.226Z,0
2018-05-29T01:26:09.022Z,0
2018-05-29T01:27:30.597Z,0
2018-05-29T01:28:52.691Z,0
2018-05-29T01:30:14.474Z,0
2018-05-29T01:31:36.508Z,0
2018-05-29T01:32:58.561Z,0
2018-05-29T01:34:20.335Z,0
2018-05-29T01:35:42.436Z,0
2018-05-29T01:37:04.224Z,0
2018-05-29T01:38:26.254Z,0
2018-05-29T01:39:48.299Z,0
2018-05-29T01:41:10.077Z,0
2018-05-29T01:42:31.872Z,0
2018-05-29T01:43:53.646Z,0
2018-05-29T01:45:15.421Z,0
2018-05-29T01:46:37.458Z,0
2018-05-29T01:47:58.974Z,0
2018-05-29T01:49:20.751Z,0
2018-05-29T01:50:42.795Z,0
2018-05-29T01:52:04.843Z,0
2018-05-29T01:53:26.628Z,0
2018-05-29T01:54:48.421Z,0
2018-05-29T01:56:10.465Z,0
2018-05-29T01:57:32.263Z,0
2018-05-29T01:58:54.310Z,0
2018-05-29T02:00:15.834Z,0
2018-05-29T02:01:37.601Z,0
2018-05-29T02:02:59.653Z,0
2018-05-29T02:04:21.541Z,0
2018-05-29T02:05:43.750Z,0
2018-05-29T02:07:05.795Z,0
2018-05-29T02:08:27.854Z,0
2018-05-29T02:09:49.114Z,0
2018-05-29T02:11:10.897Z,0
2018-05-29T02:12:32.930Z,0
2018-05-29T02:13:54.975Z,0
2018-05-29T02:15:17.029Z,0
2018-05-29T02:16:38.802Z,4
2018-05-29T02:18:00.586Z,4
2018-05-29T02:19:22.415Z,0
2018-05-29T02:20:44.196Z,0
2018-05-29T02:22:05.972Z,4
2018-05-29T02:23:28.031Z,4
2018-05-29T02:24:50.058Z,4
2018-05-29T02:26:12.108Z,4
2018-05-29T02:27:34.142Z,4
2018-05-29T02:28:55.661Z,8
2018-05-29T02:30:17.454Z,8
2018-05-29T02:31:39.239Z,8
2018-05-29T02:33:01.014Z,12
2018-05-29T02:34:23.073Z,12
2018-05-29T02:35:45.131Z,16
2018-05-29T02:37:07.195Z,16
2018-05-29T02:38:28.995Z,20
2018-05-29T02:39:51.060Z,24
2018-05-29T02:41:12.845Z,28
2018-05-29T02:42:34.873Z,32
2018-05-29T02:43:56.906Z,40
2018-05-29T02:45:18.951Z,44
2018-05-29T02:46:41.000Z,52
2018-05-29T02:48:03.032Z,64
2018-05-29T02:49:25.094Z,72
2018-05-29T02:50:47.143Z,80
2018-05-29T02:52:09.212Z,92
2018-05-29T02:53:31.254Z,104
2018-05-29T02:54:53.038Z,124
2018-05-29T02:56:14.550Z,136
2018-05-29T02:57:36.647Z,152
2018-05-29T02:58:58.712Z,176
2018-05-29T03:00:20.487Z,196
2018-05-29T03:01:42.260Z,220
2018-05-29T03:03:04.302Z,244
2018-05-29T03:04:26.340Z,272
2018-05-29T03:05:48.123Z,296
2018-05-29T03:07:09.910Z,320
2018-05-29T03:08:31.673Z,352
2018-05-29T03:09:53.444Z,384
2018-05-29T03:11:15.229Z,420
2018-05-29T03:12:37.277Z,460
2018-05-29T03:13:59.069Z,500
2018-05-29T03:15:20.576Z,548
2018-05-29T03:16:42.107Z,592
2018-05-29T03:18:03.889Z,644
2018-05-29T03:19:25.940Z,696
2018-05-29T03:20:47.982Z,744
2018-05-29T03:22:09.242Z,792
2018-05-29T03:23:31.270Z,840
2018-05-29T03:24:53.319Z,888
2018-05-29T03:26:15.378Z,952
2018-05-29T03:27:37.421Z,1020
2018-05-29T03:28:59.460Z,1100
2018-05-29T03:30:21.243Z,1184
2018-05-29T03:31:43.291Z,1272
2018-05-29T03:33:05.343Z,1360
2018-05-29T03:34:27.500Z,1460
2018-05-29T03:35:49.556Z,1564
2018-05-29T03:37:11.598Z,1672
2018-05-29T03:38:33.661Z,1776
2018-05-29T03:39:55.439Z,1864
2018-05-29T03:41:17.241Z,1944
2018-05-29T03:42:39.283Z,2008
2018-05-29T03:44:01.324Z,2092
2018-05-29T03:45:23.106Z,2192
2018-05-29T03:46:45.140Z,2304
2018-05-29T03:48:06.932Z,2424
2018-05-29T03:49:28.985Z,2552
2018-05-29T03:50:50.764Z,2680
2018-05-29T03:52:12.553Z,2840
2018-05-29T03:53:34.619Z,3024
2018-05-29T03:54:56.656Z,3220
2018-05-29T03:56:18.173Z,3420
2018-05-29T03:57:40.226Z,3612
2018-05-29T03:59:02.286Z,3800
2018-05-29T04:00:24.123Z,3968
2018-05-29T04:01:46.159Z,4144
2018-05-29T04:03:08.211Z,4312
2018-05-29T04:04:30.254Z,4464
2018-05-29T04:05:52.367Z,4612
2018-05-29T04:07:14.150Z,4748
2018-05-29T04:08:36.184Z,4892
2018-05-29T04:09:58.311Z,5060
2018-05-29T04:11:20.097Z,5260
2018-05-29T04:12:42.127Z,5436
2018-05-29T04:14:04.168Z,5612
2018-05-29T04:15:25.957Z,5832
2018-05-29T04:16:47.739Z,6128
2018-05-29T04:18:09.527Z,6440
2018-05-29T04:19:31.573Z,6736
2018-05-29T04:20:53.620Z,6936
2018-05-29T04:22:15.655Z,7104
2018-05-29T04:23:37.700Z,7324
2018-05-29T04:24:59.470Z,7696
2018-05-29T04:26:21.009Z,8184
2018-05-29T04:27:42.791Z,8728
2018-05-29T04:29:04.601Z,9264
2018-05-29T04:30:26.380Z,9744
2018-05-29T04:31:47.910Z,10124
2018-05-29T04:33:09.963Z,10460
2018-05-29T04:34:31.770Z,10664
2018-05-29T04:35:53.818Z,10764
2018-05-29T04:37:15.870Z,11012
2018-05-29T04:38:37.383Z,11276
2018-05-29T04:39:59.153Z,11520
2018-05-29T04:41:21.237Z,11932
2018-05-29T04:42:43.303Z,12344
2018-05-29T04:44:05.087Z,12572
2018-05-29T04:45:26.880Z,12616
2018-05-29T04:46:48.915Z,12448
2018-05-29T04:48:10.959Z,12216
2018-05-29T04:49:33.019Z,12176
2018-05-29T04:50:54.870Z,12380
2018-05-29T04:52:16.917Z,12848
2018-05-29T04:53:38.978Z,15104
2018-05-29T04:55:00.758Z,17408
2018-05-29T04:56:22.557Z,18688
2018-05-29T04:57:44.616Z,19488
2018-05-29T04:59:06.661Z,19840
2018-05-29T05:00:28.717Z,19552
2018-05-29T05:01:50.492Z,19200
2018-05-29T05:03:12.543Z,19616
2018-05-29T05:04:34.606Z,20960
2018-05-29T05:05:56.664Z,21888
2018-05-29T05:07:18.692Z,22208
2018-05-29T05:08:40.722Z,22272
2018-05-29T05:10:02.263Z,22816
2018-05-29T05:11:24.056Z,22752
2018-05-29T05:12:45.850Z,23008
2018-05-29T05:14:07.649Z,23776
2018-05-29T05:15:29.439Z,24960
2018-05-29T05:16:51.499Z,24640
2018-05-29T05:18:13.540Z,24512
2018-05-29T05:19:35.589Z,25120
2018-05-29T05:20:57.659Z,25344
2018-05-29T05:22:19.721Z,25536
2018-05-29T05:23:41.566Z,25696
2018-05-29T05:25:03.689Z,25888
2018-05-29T05:26:25.756Z,25920
2018-05-29T05:27:47.552Z,26784
2018-05-29T05:29:09.618Z,27392
2018-05-29T05:30:31.681Z,27968
2018-05-29T05:31:53.738Z,29216
2018-05-29T05:33:15.549Z,31296
2018-05-29T05:34:37.611Z,32320
2018-05-29T05:35:59.401Z,33312
2018-05-29T05:37:21.447Z,33760
2018-05-29T05:38:43.509Z,33696
2018-05-29T05:40:05.567Z,32384
2018-05-29T05:41:27.631Z,32096
2018-05-29T05:42:49.694Z,35136
2018-05-29T05:44:11.771Z,35904
2018-05-29T05:45:33.823Z,37056
2018-05-29T05:46:55.103Z,36128
2018-05-29T05:48:16.899Z,35392
2018-05-29T05:49:38.678Z,36384
2018-05-29T05:51:00.500Z,37152
2018-05-29T05:52:22.308Z,38240
2018-05-29T05:53:44.363Z,38912
2018-05-29T05:55:06.142Z,39200
2018-05-29T05:56:27.923Z,40384
2018-05-29T05:57:49.182Z,41472
2018-05-29T05:59:11.050Z,42400
2018-05-29T06:00:33.121Z,42176
2018-05-29T06:01:54.908Z,41472
2018-05-29T06:03:16.986Z,41728
2018-05-29T06:04:39.045Z,42720
2018-05-29T06:06:00.872Z,43520
2018-05-29T06:07:23.189Z,41344
2018-05-29T06:08:44.735Z,41344
2018-05-29T06:10:06.837Z,42112
2018-05-29T06:11:28.634Z,40000
2018-05-29T06:12:50.706Z,38528
2018-05-29T06:14:12.751Z,38560
2018-05-29T06:15:34.816Z,39968
2018-05-29T06:16:56.635Z,42048
2018-05-29T06:18:18.716Z,43840
2018-05-29T06:19:40.762Z,44192
2018-05-29T06:21:02.816Z,45120
2018-05-29T06:22:24.859Z,44096
2018-05-29T06:23:46.934Z,42400
2018-05-29T06:25:08.998Z,42496
2018-05-29T06:26:31.105Z,43232
2018-05-29T06:27:53.171Z,42432
2018-05-29T06:29:15.218Z,42304
2018-05-29T06:30:37.049Z,42784
2018-05-29T06:31:59.117Z,41920
2018-05-29T06:33:20.904Z,41920
2018-05-29T06:34:42.967Z,40992
2018-05-29T06:36:05.022Z,39936
2018-05-29T06:37:26.315Z,39488
2018-05-29T06:38:48.508Z,41888
2018-05-29T06:40:10.574Z,43872
2018-05-29T06:41:32.362Z,45760
2018-05-29T06:42:54.156Z,48640
2018-05-29T06:44:16.217Z,48544
2018-05-29T06:45:38.292Z,50752
2018-05-29T06:47:00.368Z,50208
2018-05-29T06:48:22.149Z,50368
2018-05-29T06:49:43.956Z,47648
2018-05-29T06:51:05.812Z,43808
2018-05-29T06:52:27.909Z,41568
2018-05-29T06:53:50.023Z,41344
2018-05-29T06:55:12.076Z,40672
2018-05-29T06:56:34.152Z,41920
2018-05-29T06:57:56.333Z,45056
2018-05-29T06:59:18.399Z,47168
2018-05-29T07:00:40.468Z,50080
2018-05-29T07:02:02.562Z,52736
2018-05-29T07:03:24.370Z,52704
2018-05-29T07:04:46.447Z,54816
2018-05-29T07:06:08.504Z,55776
2018-05-29T07:07:30.356Z,55104
2018-05-29T07:08:52.140Z,52128
2018-05-29T07:10:13.961Z,54624
2018-05-29T07:11:36.030Z,58496
2018-05-29T07:12:58.107Z,59712
2018-05-29T07:14:20.173Z,60768
2018-05-29T07:15:42.233Z,57888
2018-05-29T07:17:04.294Z,49280
2018-05-29T07:18:26.369Z,46688
2018-05-29T07:19:48.223Z,44256
2018-05-29T07:21:10.385Z,39360
2018-05-29T07:22:32.173Z,35968
2018-05-29T07:23:53.723Z,33024
2018-05-29T07:25:15.794Z,31424
2018-05-29T07:26:37.871Z,30432
2018-05-29T07:27:59.432Z,29504
2018-05-29T07:29:21.256Z,28672
2018-05-29T07:30:43.329Z,28576
2018-05-29T07:32:05.388Z,28864
2018-05-29T07:33:27.453Z,28800
2018-05-29T07:34:49.525Z,28928
2018-05-29T07:36:11.043Z,28896
2018-05-29T07:37:32.843Z,28736
2018-05-29T07:38:54.384Z,28448
2018-05-29T07:40:16.599Z,28288
2018-05-29T07:41:38.665Z,27936
2018-05-29T07:43:00.463Z,27584
2018-05-29T07:44:22.536Z,27424
2018-05-29T07:45:44.593Z,27008
2018-05-29T07:47:06.661Z,26784
2018-05-29T07:48:28.489Z,26912
2018-05-29T07:49:50.316Z,27040
2018-05-29T07:51:12.124Z,27360
2018-05-29T07:52:34.205Z,27808
2018-05-29T07:53:56.016Z,29056
2018-05-29T07:55:18.083Z,27072
2018-05-29T07:56:39.894Z,26848
2018-05-29T07:58:01.718Z,25664
2018-05-29T07:59:23.515Z,25376
2018-05-29T08:00:45.321Z,24352
2018-05-29T08:02:07.116Z,24576
2018-05-29T08:03:28.932Z,24448
2018-05-29T08:04:50.742Z,23872
2018-05-29T08:06:12.565Z,21664
2018-05-29T08:07:34.383Z,17980
2018-05-29T08:08:56.193Z,16620
2018-05-29T08:10:18.270Z,16088
2018-05-29T08:11:40.326Z,15732
2018-05-29T08:13:02.385Z,15516
2018-05-29T08:14:24.430Z,15364
2018-05-29T08:15:46.510Z,15232
2018-05-29T08:17:07.787Z,15168
2018-05-29T08:18:29.896Z,15064
2018-05-29T08:19:51.680Z,14976
2018-05-29T08:21:13.480Z,14876
2018-05-29T08:22:35.270Z,14776
2018-05-29T08:23:57.341Z,14624
2018-05-29T08:25:19.418Z,14592
2018-05-29T08:26:41.464Z,14632
2018-05-29T08:28:03.263Z,14652
2018-05-29T08:29:24.802Z,14600
2018-05-29T08:30:46.352Z,14580
2018-05-29T08:32:08.391Z,14548
2018-05-29T08:33:30.468Z,14536
2018-05-29T08:34:52.533Z,14480
2018-05-29T08:36:14.330Z,14360
2018-05-29T08:37:36.401Z,14248
2018-05-29T08:38:58.478Z,14164
2018-05-29T08:40:20.277Z,14028
2018-05-29T08:41:42.098Z,13944
2018-05-29T08:43:04.165Z,13860
2018-05-29T08:44:25.704Z,13784
2018-05-29T08:45:47.475Z,13680
2018-05-29T08:47:09.518Z,13664
2018-05-29T08:48:31.589Z,13612
2018-05-29T08:49:53.643Z,13472
2018-05-29T08:51:15.710Z,13360
2018-05-29T08:52:37.771Z,13244
2018-05-29T08:53:59.832Z,13148
2018-05-29T08:55:21.890Z,13096
2018-05-29T08:56:43.467Z,13052
2018-05-29T08:58:05.248Z,13060
2018-05-29T08:59:27.293Z,13164
2018-05-29T09:00:49.365Z,13176
2018-05-29T09:02:11.171Z,13184
2018-05-29T09:03:32.980Z,13164
2018-05-29T09:04:55.036Z,13180
2018-05-29T09:06:17.109Z,13124
2018-05-29T09:07:38.913Z,13092
2018-05-29T09:09:00.970Z,13068
2018-05-29T09:10:23.009Z,12920
2018-05-29T09:11:45.156Z,12864
2018-05-29T09:13:07.028Z,12876
2018-05-29T09:14:29.115Z,12908
2018-05-29T09:15:50.918Z,12908
2018-05-29T09:17:12.968Z,12944
2018-05-29T09:18:35.007Z,12988
2018-05-29T09:19:56.927Z,12928
2018-05-29T09:21:19.033Z,12876
2018-05-29T09:22:41.100Z,12816
2018-05-29T09:24:02.647Z,12756
2018-05-29T09:25:24.453Z,12724
2018-05-29T09:26:46.538Z,12640
2018-05-29T09:28:08.336Z,12548
2018-05-29T09:29:29.885Z,12488
2018-05-29T09:30:51.977Z,12404
2018-05-29T09:32:13.879Z,12392
2018-05-29T09:33:35.697Z,12364
2018-05-29T09:34:57.750Z,12364
2018-05-29T09:36:19.803Z,12328
2018-05-29T09:37:41.970Z,12212
2018-05-29T09:39:04.037Z,12092
2018-05-29T09:40:25.636Z,12016
2018-05-29T09:41:47.585Z,12028
2018-05-29T09:43:09.149Z,12080
2018-05-29T09:44:31.196Z,12036
2018-05-29T09:45:53.427Z,11988
2018-05-29T09:47:15.620Z,11976
2018-05-29T09:48:37.802Z,12036
2018-05-29T09:49:59.859Z,11948
2018-05-29T09:51:21.940Z,11940
2018-05-29T09:52:43.746Z,11960
2018-05-29T09:54:05.880Z,11980
2018-05-29T09:55:27.933Z,12092
2018-05-29T09:56:49.730Z,12200
2018-05-29T09:58:11.776Z,12248
2018-05-29T09:59:33.311Z,12280
2018-05-29T10:00:55.382Z,12260
2018-05-29T10:02:17.455Z,12144
2018-05-29T10:03:39.535Z,12060
2018-05-29T10:05:01.655Z,12180
2018-05-29T10:06:23.720Z,12228
2018-05-29T10:07:45.502Z,12320
2018-05-29T10:09:07.577Z,12480
2018-05-29T10:10:29.383Z,12804
2018-05-29T10:11:51.459Z,13544
2018-05-29T10:13:13.556Z,13416
2018-05-29T10:14:35.766Z,13300
2018-05-29T10:15:57.032Z,12528
2018-05-29T10:17:19.037Z,12140
2018-05-29T10:18:41.088Z,12276
2018-05-29T10:20:03.169Z,12104
2018-05-29T10:21:25.222Z,11920
2018-05-29T10:22:47.272Z,11628
2018-05-29T10:24:09.346Z,10452
2018-05-29T10:25:31.145Z,12432
2018-05-29T10:26:53.198Z,11668
2018-05-29T10:28:14.994Z,11660
2018-05-29T10:29:37.042Z,11920
2018-05-29T10:30:58.916Z,10744
2018-05-29T10:32:20.762Z,11628
2018-05-29T10:33:42.811Z,11524
2018-05-29T10:35:04.604Z,10272
2018-05-29T10:36:25.860Z,11120
2018-05-29T10:37:47.658Z,10444
2018-05-29T10:39:09.722Z,9708
2018-05-29T10:40:31.522Z,8944
2018-05-29T10:41:53.602Z,9324
2018-05-29T10:43:15.399Z,10628
2018-05-29T10:44:37.220Z,12424
2018-05-29T10:45:59.094Z,12420
2018-05-29T10:47:21.216Z,11572
2018-05-29T10:48:43.297Z,10712
2018-05-29T10:50:05.101Z,11584
2018-05-29T10:51:26.942Z,11780
2018-05-29T10:52:48.848Z,12120
2018-05-29T10:54:10.900Z,10360
2018-05-29T10:55:32.970Z,9748
2018-05-29T10:56:55.050Z,9764
2018-05-29T10:58:17.111Z,10204
2018-05-29T10:59:38.910Z,10568
2018-05-29T11:01:00.713Z,10056
2018-05-29T11:02:22.537Z,11116
2018-05-29T11:03:44.340Z,10896
2018-05-29T11:05:06.415Z,12084
2018-05-29T11:06:28.496Z,13904
2018-05-29T11:07:50.574Z,13804
2018-05-29T11:09:12.644Z,13924
2018-05-29T11:10:34.705Z,14636
2018-05-29T11:11:56.778Z,15224
2018-05-29T11:13:18.836Z,15024
2018-05-29T11:14:40.917Z,14628
2018-05-29T11:16:02.964Z,14652
2018-05-29T11:17:24.762Z,14352
2018-05-29T11:18:46.821Z,12936
2018-05-29T11:20:09.009Z,13452
2018-05-29T11:21:31.138Z,14620
2018-05-29T11:22:52.683Z,14136
2018-05-29T11:24:14.491Z,14044
2018-05-29T11:25:36.555Z,15168
2018-05-29T11:26:58.619Z,14352
2018-05-29T11:28:20.180Z,13200
2018-05-29T11:29:41.986Z,13412
2018-05-29T11:31:03.767Z,12440
2018-05-29T11:32:25.867Z,11456
2018-05-29T11:33:47.930Z,12108
2018-05-29T11:35:09.984Z,11464
2018-05-29T11:36:31.811Z,10608
2018-05-29T11:37:53.617Z,10332
2018-05-29T11:39:15.672Z,10756
2018-05-29T11:40:37.771Z,11940
2018-05-29T11:41:59.827Z,12136
2018-05-29T11:43:21.907Z,11744
2018-05-29T11:44:43.719Z,11612
2018-05-29T11:46:05.780Z,12324
2018-05-29T11:47:27.631Z,12892
2018-05-29T11:48:49.821Z,11736
2018-05-29T11:50:11.616Z,11348
2018-05-29T11:51:33.720Z,10700
2018-05-29T11:52:55.792Z,9872
2018-05-29T11:54:17.589Z,9276
2018-05-29T11:55:38.860Z,8612
2018-05-29T11:57:00.937Z,8692
2018-05-29T11:58:22.999Z,9832
2018-05-29T11:59:45.071Z,10628
2018-05-29T12:01:07.130Z,11208
2018-05-29T12:02:29.200Z,11200
2018-05-29T12:03:51.267Z,10360
2018-05-29T12:05:13.339Z,9044
2018-05-29T12:06:35.146Z,8644
2018-05-29T12:07:56.432Z,9636
2018-05-29T12:09:18.507Z,11072
2018-05-29T12:10:40.579Z,13744
2018-05-29T12:12:02.390Z,15328
2018-05-29T12:13:24.445Z,14968
2018-05-29T12:14:46.509Z,13096
2018-05-29T12:16:08.312Z,13352
2018-05-29T12:17:30.106Z,13684
2018-05-29T12:18:52.161Z,13036
2018-05-29T12:20:13.945Z,13204
2018-05-29T12:21:35.749Z,12532
2018-05-29T12:22:57.823Z,12816
2018-05-29T12:24:19.617Z,13104
2018-05-29T12:25:41.673Z,12372
2018-05-29T12:27:03.736Z,10544
2018-05-29T12:28:26.229Z,9024
2018-05-29T12:29:48.030Z,9264
2018-05-29T12:31:10.121Z,10396
2018-05-29T12:32:32.206Z,10688
2018-05-29T12:33:54.275Z,10300
2018-05-29T12:35:16.339Z,10676
2018-05-29T12:36:38.128Z,12060
2018-05-29T12:37:59.665Z,12908
2018-05-29T12:39:21.737Z,13748
2018-05-29T12:40:43.533Z,15692
2018-05-29T12:42:05.341Z,16800
2018-05-29T12:43:27.445Z,16448
2018-05-29T12:44:49.519Z,15916
2018-05-29T12:46:11.371Z,15648
2018-05-29T12:47:33.317Z,15488
2018-05-29T12:48:55.383Z,15424
2018-05-29T12:50:17.273Z,15892
2018-05-29T12:51:39.105Z,16832
2018-05-29T12:53:00.652Z,18016
2018-05-29T12:54:21.954Z,18560
2018-05-29T12:55:44.014Z,18176
2018-05-29T12:57:06.077Z,16448
2018-05-29T12:58:27.891Z,14152
2018-05-29T12:59:49.196Z,11888
2018-05-29T13:01:10.469Z,10652
2018-05-29T13:02:32.326Z,10704
2018-05-29T13:03:54.126Z,11548
2018-05-29T13:05:16.182Z,12148
2018-05-29T13:06:38.011Z,12352
2018-05-29T13:08:00.067Z,12060
2018-05-29T13:09:21.895Z,11248
2018-05-29T13:10:43.731Z,10924
2018-05-29T13:12:05.284Z,11828
2018-05-29T13:13:27.100Z,13128
2018-05-29T13:14:49.225Z,13292
2018-05-29T13:16:11.300Z,13116
2018-05-29T13:17:33.399Z,12140
2018-05-29T13:18:55.196Z,10656
2018-05-29T13:20:17.278Z,10024
2018-05-29T13:21:39.086Z,10164
2018-05-29T13:23:00.892Z,10140
2018-05-29T13:24:22.445Z,9888
2018-05-29T13:25:44.248Z,10808
2018-05-29T13:27:06.354Z,11468
2018-05-29T13:28:28.279Z,11264
2018-05-29T13:29:50.362Z,12268
2018-05-29T13:31:12.434Z,12164
2018-05-29T13:32:34.280Z,12868
2018-05-29T13:33:56.414Z,13008
2018-05-29T13:35:18.341Z,13432
2018-05-29T13:36:40.239Z,14240
2018-05-29T13:38:02.318Z,13940
2018-05-29T13:39:24.437Z,13232
2018-05-29T13:40:46.532Z,12780
2018-05-29T13:42:08.350Z,13108
2018-05-29T13:43:30.428Z,14540
2018-05-29T13:44:52.233Z,15896
2018-05-29T13:46:14.333Z,15172
2018-05-29T13:47:36.145Z,14288
2018-05-29T13:48:57.951Z,12468
2018-05-29T13:50:20.007Z,10212
2018-05-29T13:51:41.331Z,9104
2018-05-29T13:53:03.410Z,8716
2018-05-29T13:54:25.252Z,8768
2018-05-29T13:55:47.134Z,9220
2018-05-29T13:57:09.204Z,9988
2018-05-29T13:58:31.274Z,11636
2018-05-29T13:59:53.086Z,13000
2018-05-29T14:01:14.903Z,13860
2018-05-29T14:02:37.015Z,12928
2018-05-29T14:03:59.115Z,12220
2018-05-29T14:05:21.180Z,12068
2018-05-29T14:06:42.977Z,11640
2018-05-29T14:08:05.037Z,11788
2018-05-29T14:09:27.129Z,12276
2018-05-29T14:10:48.938Z,12880
2018-05-29T14:12:10.507Z,12776
2018-05-29T14:13:32.319Z,12852
2018-05-29T14:14:54.249Z,11876
2018-05-29T14:16:16.390Z,11132
2018-05-29T14:17:38.220Z,10332
2018-05-29T14:19:00.058Z,10612
2018-05-29T14:20:21.943Z,10268
2018-05-29T14:21:43.751Z,9384
2018-05-29T14:23:05.561Z,9160
2018-05-29T14:24:27.391Z,9348
2018-05-29T14:25:49.221Z,9716
2018-05-29T14:27:11.278Z,10476
2018-05-29T14:28:33.360Z,12560
2018-05-29T14:29:54.907Z,14388
2018-05-29T14:31:16.984Z,15848
2018-05-29T14:32:38.795Z,16928
2018-05-29T14:34:00.858Z,16896
2018-05-29T14:35:22.390Z,16304
2018-05-29T14:36:44.499Z,15364
2018-05-29T14:38:06.573Z,14420
2018-05-29T14:39:28.637Z,13460
2018-05-29T14:40:50.448Z,11320
2018-05-29T14:42:12.521Z,9968
2018-05-29T14:43:34.591Z,8908
2018-05-29T14:44:56.719Z,8168
2018-05-29T14:46:18.815Z,7828
2018-05-29T14:47:40.624Z,8160
2018-05-29T14:49:02.711Z,8112
2018-05-29T14:50:24.520Z,7860
2018-05-29T14:51:46.334Z,7440
2018-05-29T14:53:08.412Z,6960
2018-05-29T14:54:30.469Z,6456
2018-05-29T14:55:52.276Z,6268
2018-05-29T14:57:14.094Z,5976
2018-05-29T14:58:35.918Z,5436
2018-05-29T14:59:58.015Z,4980
2018-05-29T15:01:19.828Z,5160
2018-05-29T15:02:41.914Z,5552
2018-05-29T15:04:03.979Z,5856
2018-05-29T15:05:26.048Z,6024
2018-05-29T15:06:48.129Z,6304
2018-05-29T15:08:10.207Z,6564
2018-05-29T15:09:32.276Z,7216
2018-05-29T15:10:54.085Z,8584
2018-05-29T15:12:16.188Z,9440
2018-05-29T15:13:38.012Z,10256
2018-05-29T15:14:59.843Z,10496
2018-05-29T15:16:21.915Z,10556
2018-05-29T15:17:43.998Z,10580
2018-05-29T15:19:05.799Z,10660
2018-05-29T15:20:27.599Z,10788
2018-05-29T15:21:49.678Z,10880
2018-05-29T15:23:11.527Z,10392
2018-05-29T15:24:33.595Z,9920
2018-05-29T15:25:55.505Z,9384
2018-05-29T15:27:17.343Z,9080
2018-05-29T15:28:39.441Z,8584
2018-05-29T15:30:01.549Z,8468
2018-05-29T15:31:23.096Z,7696
2018-05-29T15:32:44.917Z,7280
2018-05-29T15:34:06.739Z,7168
2018-05-29T15:35:28.535Z,7328
2018-05-29T15:36:50.629Z,7912
2018-05-29T15:38:12.165Z,7988
2018-05-29T15:39:33.718Z,7976
2018-05-29T15:40:56.015Z,7964
2018-05-29T15:42:18.101Z,7952
2018-05-29T15:43:39.924Z,8016
2018-05-29T15:45:02.036Z,8084
2018-05-29T15:46:24.115Z,8220
2018-05-29T15:47:46.203Z,8328
2018-05-29T15:49:08.040Z,8368
2018-05-29T15:50:30.126Z,8480
2018-05-29T15:51:52.244Z,8780
2018-05-29T15:53:14.404Z,9008
2018-05-29T15:54:36.544Z,9116
2018-05-29T15:55:58.643Z,9156
2018-05-29T15:57:20.729Z,9008
2018-05-29T15:58:42.562Z,8788
2018-05-29T16:00:04.550Z,8640
2018-05-29T16:01:26.362Z,8516
2018-05-29T16:02:48.448Z,8432
2018-05-29T16:04:10.513Z,8248
2018-05-29T16:05:32.588Z,8008
2018-05-29T16:06:54.674Z,7940
2018-05-29T16:08:15.950Z,7832
2018-05-29T16:09:38.049Z,7856
2018-05-29T16:11:00.121Z,7812
2018-05-29T16:12:21.929Z,7696
2018-05-29T16:13:44.027Z,7532
2018-05-29T16:15:06.124Z,7400
2018-05-29T16:16:27.914Z,7256
2018-05-29T16:17:50.028Z,7160
2018-05-29T16:19:12.159Z,7060
2018-05-29T16:20:34.266Z,6944
2018-05-29T16:21:56.333Z,6616
2018-05-29T16:23:18.142Z,6304
2018-05-29T16:24:39.964Z,6296
2018-05-29T16:26:02.036Z,6200
2018-05-29T16:27:23.863Z,6084
2018-05-29T16:28:45.680Z,6008
2018-05-29T16:30:07.498Z,6032
2018-05-29T16:31:29.608Z,6032
2018-05-29T16:32:51.715Z,5940
2018-05-29T16:34:13.545Z,5576
2018-05-29T16:35:35.623Z,5212
2018-05-29T16:36:57.689Z,4916
2018-05-29T16:38:19.753Z,4704
2018-05-29T16:39:41.867Z,4532
2018-05-29T16:41:03.727Z,4412
2018-05-29T16:42:25.805Z,4380
2018-05-29T16:43:47.619Z,4396
2018-05-29T16:45:09.457Z,4492
2018-05-29T16:46:31.534Z,4620
2018-05-29T16:47:53.365Z,4700
2018-05-29T16:49:15.551Z,4764
2018-05-29T16:50:37.376Z,4992
2018-05-29T16:51:59.465Z,5336
2018-05-29T16:53:21.551Z,5656
2018-05-29T16:54:43.153Z,5796
2018-05-29T16:56:05.024Z,5920
2018-05-29T16:57:26.610Z,6096
2018-05-29T16:58:48.432Z,6232
2018-05-29T17:00:10.261Z,6184
2018-05-29T17:01:32.108Z,6108
2018-05-29T17:02:54.217Z,6136
2018-05-29T17:04:16.089Z,6144
2018-05-29T17:05:38.191Z,6244
2018-05-29T17:07:00.308Z,6384
2018-05-29T17:08:22.388Z,6528
2018-05-29T17:09:44.474Z,6576
2018-05-29T17:11:06.380Z,6464
2018-05-29T17:12:28.537Z,6320
2018-05-29T17:13:50.765Z,6288
2018-05-29T17:15:12.871Z,6300
2018-05-29T17:16:34.578Z,6060
2018-05-29T17:17:56.764Z,5744
2018-05-29T17:19:18.980Z,5496
2018-05-29T17:20:41.232Z,5316
2018-05-29T17:22:03.553Z,5152
2018-05-29T17:23:25.472Z,4976
2018-05-29T17:24:47.712Z,4824
2018-05-29T17:26:09.701Z,4732
2018-05-29T17:27:31.925Z,4676
2018-05-29T17:28:53.916Z,4724
2018-05-29T17:30:15.335Z,4728
2018-05-29T17:31:37.579Z,4544
2018-05-29T17:32:59.819Z,4432
2018-05-29T17:34:21.809Z,4436
2018-05-29T17:35:44.228Z,4524
2018-05-29T17:37:06.522Z,4604
2018-05-29T17:38:28.966Z,4644
2018-05-29T17:39:50.620Z,4692
2018-05-29T17:41:12.959Z,4748
2018-05-29T17:42:35.307Z,4804
2018-05-29T17:43:57.557Z,4804
2018-05-29T17:45:19.743Z,4708
2018-05-29T17:46:41.405Z,4540
2018-05-29T17:48:03.699Z,4412
2018-05-29T17:49:25.973Z,4416
2018-05-29T17:50:48.274Z,4468
2018-05-29T17:52:10.596Z,4444
2018-05-29T17:53:32.623Z,4336
2018-05-29T17:54:54.953Z,4180
2018-05-29T17:56:16.816Z,3976
2018-05-29T17:57:39.226Z,3796
2018-05-29T17:59:01.874Z,3728
2018-05-29T18:00:24.097Z,3700
2018-05-29T18:01:46.503Z,3680
2018-05-29T18:03:08.228Z,3676
2018-05-29T18:04:30.648Z,3620
2018-05-29T18:05:53.033Z,3568
2018-05-29T18:07:15.514Z,3512
2018-05-29T18:08:37.886Z,3384